Terminal Aerodrome Forecast
Issued by NWS Grand Junction, CO

Home | Current Version | Previous Version | Text Only | Print | Product List | Glossary On
Versions: 1 2 3 4 5 6 7 8 9 10 11 12 13 14 15 16 17 18 19 20 21 22 23 24 25 26 27 28 29 30 31 32 33 34 35 36 37 38 39 40 41 42
000
FTUS45 KGJT 010344 AAB
TAFGJT
TAF AMD
KGJT 010344Z 0104/0124 34007KT P6SM FEW150 SCT250
     FM010500 08006KT P6SM VCTS SCT110CB BKN200
      TEMPO 0105/0108 VRB15G25KT -TSRA SCT070CB BKN100
     FM010800 09005KT P6SM FEW110 BKN200
     FM011400 14005KT P6SM SCT250
     FM012000 23009KT P6SM FEW100 SCT150=

USA.gov is the U.S. government's official web portal to all federal, state and local government web resources and services.